Not for real navigation | The accuracy of this data is not assured | See disclaimer for more information
ICAO NAME COUNTRY WIND Kt GUST Kt VIS TEMP/DEW BARO
VORY 80 0 4000 27/20 29.97
VORY 180630Z 07080KT 4000 HZ SCT020 27/20 Q1015 NOSIG
CWZV Virginia Falls Canada 62 71 9999 2/1 29.92
CWZV 180600Z AUTO 11062G71KT 02/01 RMK AO1 9PAST HR 6053 PK WND 10074/0520 SLP963 P0031 T00170010 50310
CWRU Solander Island Meteorological Canada 59 70 9999 3/0 29.92
CWRU 180500Z AUTO 12059G70KT 03/ RMK AO1 8PAST HR PRESFR 8064 PK WND 12070/0413 SLP960 P0003 T0031 50010
CWDO Twillingate Meteorological Aer Canada 57 72 9999 -7/-8 29.92
CWDO 180600Z AUTO 35057G72KT M07/M08 RMK AO1 SOG 29 3020 PK WND 35072/0556 SLP889 T10731083 50027
KMWN Mount Washington NH United States 53 64 32767 -17/-24 29.92
KMWN 180555Z 32053G64KT 90SM FEW160 SCT180 M17/M24 RMK 4/004 11158 21196

Show more

Close Menu